Nearby METAR Reports

 

KEDC - Austin Exec, Texas, USA
Distance from station: SSE 10mi, 17km
Updated: Sun, 17-Jan-2021 12:15pm CST
Clear
Clear
 Wind from N
Wind: N 7 mph , 11 km/h
Temperature: 61°F , 16°C
Dew Point: 25°F , -4°C
Humidity: 25%
Barometer: 30.15 inHg , 1021 hPa
Clouds: Clear
Visibility: 9 miles , 14 km
2021/01/17 18:15 KEDC 171815Z AUTO 35006KT 9SM CLR 16/M04 A3015 RMK AO2
KGTU - Georgetown, Texas, USA
Distance from station: NNW 11mi, 17km
Updated: Sun, 17-Jan-2021 11:56am CST
Clear
Clear
 Wind from WNW
Wind: WNW 10 mph , 17 km/h
Temperature: 61°F , 16°C
Dew Point: 23°F , -5°C
Humidity: 23%
Barometer: 30.17 inHg , 1021.7 hPa
Clouds: Clear
Visibility: 10 miles , 16 km
2021/01/17 17:56 KGTU 171756Z AUTO 30009KT 10SM CLR 16/M05 A3017 RMK AO2 SLP218 T01611050 10161 21006 50002
 
KATT - Austin/Mabry, Texas, USA
Distance from station: SSW 18mi, 30km
Updated: Sun, 17-Jan-2021 11:51am CST
Clear
Clear
 Wind from calm
Wind: Calm
Temperature: 64°F , 18°C
Dew Point: 27°F , -3°C
Humidity: 24%
Barometer: 30.16 inHg , 1021.3 hPa
Clouds: Clear
Visibility: 10 miles , 16 km
2021/01/17 17:51 KATT 171751Z AUTO 00000KT 10SM CLR 18/M03 A3016 RMK AO2 SLP213 T01781033 10178 20039 50005
KRYW - Lago Vista, Texas, USA
Distance from station: W 22mi, 35km
Updated: Sun, 17-Jan-2021 12:15pm CST
Clear
Clear
 Wind from W
Wind: W 8 mph , 13 km/h
Barometer: 30.14 inHg , 1020.7 hPa
Clouds: Clear
Visibility: 10 miles , 16 km
2021/01/17 18:15 KRYW 171815Z AUTO 27007KT 10SM CLR A3014 RMK AO2
 
KAUS - Austin, Texas, USA
Distance from station: S 25mi, 41km
Updated: Sun, 17-Jan-2021 11:53am CST
Few Clouds
Few Clouds
 Wind from NNW
Wind: NNW 9 mph , 15 km/h
Temperature: 64°F , 18°C
Dew Point: 28°F , -2°C
Humidity: 26%
Barometer: 30.15 inHg , 1021 hPa
Clouds: Few Clouds
Visibility: 10 miles , 16 km
Cloud details: Few Clouds 25000 ft
2021/01/17 17:53 KAUS 171753Z 33008KT 10SM FEW250 18/M02 A3015 RMK AO2 SLP210 T01831022 10183 20033 50003
KILE - Killeen Muni, Texas, USA
Distance from station: N 36mi, 58km
Updated: Sun, 17-Jan-2021 11:56am CST
Clear
Clear
 Wind from NE
Wind: NE 13 mph , 20 km/h
Temperature: 61°F , 16°C
Dew Point: 28°F , -2°C
Humidity: 29%
Barometer: 30.16 inHg , 1021.3 hPa
Clouds: Clear
Visibility: 10 miles , 16 km
2021/01/17 17:56 KILE 171756Z AUTO 05011KT 10SM CLR 16/M02 A3016 RMK AO2 SLP209 T01561022 10156 20022 58003
 
KGRK - Gray/Ft Hood, Texas, USA
Distance from station: NNW 38mi, 62km
Updated: Sun, 17-Jan-2021 11:58am CST
Clear
Clear
 Wind from NNE
Wind: NNE 6 mph , 9 km/h
Temperature: 59°F , 15°C
Dew Point: 27°F , -3°C
Humidity: 29%
Barometer: 30.13 inHg , 1020.3 hPa
Clouds: Clear
Visibility: 7 miles , 11 km
2021/01/17 17:58 KGRK 171758Z AUTO 02005KT 7SM CLR 15/M03 A3013 RMK AO2 SLP203 T01541032 10154 20062 58004 $
KBMQ - Burnet, Texas, USA
Distance from station: WNW 39mi, 64km
Updated: Sun, 17-Jan-2021 11:53am CST
Clear
Clear
 Wind from N
Wind: N 9 mph , 15 km/h
Temperature: 59°F , 15°C
Dew Point: 25°F , -4°C
Humidity: 27%
Barometer: 30.17 inHg , 1021.7 hPa
Clouds: Clear
Visibility: 10 miles , 16 km
2021/01/17 17:53 KBMQ 171753Z AUTO 35008KT 10SM CLR 15/M04 A3017 RMK AO2 SLP213 T01501039 10156 21006 50002
 
KHLR - Ft Hood/Killeen, Texas, USA
Distance from station: N 41mi, 66km
Updated: Sun, 17-Jan-2021 11:58am CST
Clear
Clear
 Wind from NE
Wind: NE 7 mph , 11 km/h
Temperature: 59°F , 15°C
Dew Point: 27°F , -3°C
Humidity: 29%
Barometer: 30.15 inHg , 1021 hPa
Clouds: Clear
Visibility: 9 miles , 14 km
2021/01/17 17:58 KHLR 171758Z AUTO 05006KT 9SM CLR 15/M03 A3015 RMK AO2 SLP209 60000 T01531026 10153 20027 58003
KTPL - Temple/Miller, Texas, USA
Distance from station: NNE 42mi, 68km
Updated: Sun, 17-Jan-2021 11:51am CST
Clear
Clear
 Wind from N
Wind: N 9 mph , 15 km/h
Temperature: 61°F , 16°C
Dew Point: 30°F , -1°C
Humidity: 31%
Barometer: 30.16 inHg , 1021.3 hPa
Clouds: Clear
Visibility: 10 miles , 16 km
2021/01/17 17:51 KTPL 171751Z AUTO 35008KT 10SM CLR 16/M01 A3016 RMK AO2 SLP211 T01561006 10156 20000 50000
 
KT35 - Cameron, Texas, USA
Distance from station: ENE 45mi, 72km
Updated: Sun, 17-Jan-2021 12:15pm CST
Clear
Clear
 Wind from N
Wind: N 7 mph , 11 km/h
Temperature: 59°F , 15°C
Dew Point: 32°F , 0°C
Humidity: 36%
Barometer: 30.15 inHg , 1021 hPa
Clouds: Clear
Visibility: 10 miles , 16 km
2021/01/17 18:15 KT35 171815Z AUTO 01006KT 10SM CLR 15/00 A3015 RMK AO2 T01491005
KDZB - Horseshoe Bay, Texas, USA
Distance from station: W 45mi, 73km
Updated: Sun, 17-Jan-2021 12:20pm CST
Clear
Clear
 Wind from N
Wind: N 7 mph , 11 km/h
Temperature: 59°F , 15°C
Dew Point: 27°F , -3°C
Humidity: 29%
Barometer: 30.15 inHg , 1021 hPa
Clouds: Clear
Visibility: 10 miles , 16 km
2021/01/17 18:20 KDZB 171820Z AUTO 36006KT 10SM CLR 15/M03 A3015 RMK AO2
 
KGYB - Giddings-Lee, Texas, USA
Distance from station: SE 45mi, 73km
Updated: Sun, 17-Jan-2021 12:15pm CST
Clear
Clear
 Wind from NW
Wind: NW 10 mph , 17 km/h
Temperature: 64°F , 18°C
Dew Point: 28°F , -2°C
Humidity: 26%
Barometer: 30.16 inHg , 1021.3 hPa
Clouds: Clear
Visibility: 10 miles , 16 km
2021/01/17 18:15 KGYB 171815Z AUTO 31009KT 10SM CLR 18/M02 A3016 RMK AO2 T01821020
KHYI - San Marcos, Texas, USA
Distance from station: SSW 48mi, 78km
Updated: Sun, 17-Jan-2021 11:56am CST
Clear
Clear
 Wind from WSW
Wind: WSW 7 mph , 11 km/h
Temperature: 66°F , 19°C
Dew Point: 27°F , -3°C
Humidity: 22%
Barometer: 30.14 inHg , 1020.7 hPa
Clouds: Clear
Visibility: 10 miles , 16 km
2021/01/17 17:56 KHYI 171756Z 24006KT 10SM CLR 19/M03 A3014 RMK AO2 SLP204 T01941028 10194 21006 58005
 
KLZZ - Lampasas, Texas, USA
Distance from station: NW 52mi, 84km
Updated: Sun, 17-Jan-2021 7:15am CST
NOT Current
Clear
Clear
 Wind from calm
Wind: Calm
Temperature: 36°F , 2°C
Dew Point: 23°F , -5°C
Humidity: 60%
Barometer: 30.10 inHg , 1019.3 hPa
Clouds: Clear
Visibility: 10 miles , 16 km
2021/01/17 13:15 KLZZ 171315Z AUTO 00000KT 10SM CLR 02/M05 A3010 RMK AO2 T00201047
KRWV - Caldwell, Texas, USA
Distance from station: E 54mi, 87km
Updated: Sun, 17-Jan-2021 12:15pm CST
Clear
Clear
 Wind from WNW
Wind: WNW 12 mph , 19 km/h, Gust: 17 mph , 28 km/h
Temperature: 63°F , 17°C
Dew Point: 28°F , -2°C
Humidity: 27%
Barometer: 30.13 inHg , 1020.3 hPa
Clouds: Clear
Visibility: 10 miles , 16 km
2021/01/17 18:15 KRWV 171815Z AUTO 30010G15KT 10SM CLR 17/M02 A3013 RMK AO2 T01711024
 
K3T5 - La Grange, Texas, USA
Distance from station: SE 59mi, 95km
Updated: Sun, 17-Jan-2021 12:15pm CST
Clear
Clear
 Wind from NNW
Wind: NNW 10 mph , 17 km/h
Temperature: 64°F , 18°C
Dew Point: 30°F , -1°C
Humidity: 28%
Barometer: 30.12 inHg , 1020 hPa
Clouds: Clear
Visibility: 10 miles , 16 km
2021/01/17 18:15 K3T5 171815Z AUTO 34009KT 10SM CLR 18/M01 A3012 RMK AO2 T01811013
KGOP - Gatesville, Texas, USA
Distance from station: N 61mi, 99km
Updated: Sun, 17-Jan-2021 12:15pm CST
Clear
Clear
 Wind from ENE
Wind: ENE 8 mph , 13 km/h
Temperature: 57°F , 14°C
Dew Point: 27°F , -3°C
Humidity: 31%
Barometer: 30.16 inHg , 1021.3 hPa
Clouds: Clear
Visibility: 10 miles , 16 km
2021/01/17 18:15 KGOP 171815Z AUTO 06007KT 10SM CLR 14/M03 A3016 RMK AO2
 
KLHB - Hearne Muni, Texas, USA
Distance from station: ENE 63mi, 101km
Updated: Sun, 17-Jan-2021 12:15pm CST
Clear
Clear
 Wind from NNW
Wind: NNW 6 mph , 9 km/h
Temperature: 61°F , 16°C
Dew Point: 34°F , 1°C
Humidity: 36%
Barometer: 30.15 inHg , 1021 hPa
Clouds: Clear
Visibility: 10 miles , 16 km
2021/01/17 18:15 KLHB 171815Z AUTO 33005KT 10SM CLR 16/01 A3015 RMK AO2 T01550007
KBAZ - New Braunfels, Texas, USA
Distance from station: SSW 63mi, 102km
Updated: Sun, 17-Jan-2021 11:51am CST
Clear
Clear
 Wind from WSW
Wind: WSW 12 mph , 19 km/h, Gust: 17 mph , 28 km/h
Temperature: 68°F , 20°C
Dew Point: 30°F , -1°C
Humidity: 24%
Barometer: 30.13 inHg , 1020.3 hPa
Clouds: Clear
Visibility: 10 miles , 16 km
2021/01/17 17:51 KBAZ 171751Z 25010G15KT 10SM CLR 20/M01 A3013 RMK AO2 SLP200 T02001006 10200 20028 58003